Time;durP1;ratioP1;P1;durP2;ratioP2;P2;SDS_P1;SDS_P2;PMS_P1;PMS_P2;Temp;Humidity;BMP_temperature;BMP_pressure;BME280_temperature;BME280_humidity;BME280_pressure;Samples;Min_cycle;Max_cycle;Signal;HPM_P1;HPM_P2
2022/12/06 04:45:43;;;;;;;16.55;7.87;;;;;;;4.12;100.00;100484.03;5324321;33;33659;-85
2022/12/06 04:48:46;;;;;;;14.52;7.35;;;;;;;4.18;100.00;100483.47;5326162;33;34643;-84
2022/12/06 04:51:53;;;;;;;14.35;7.03;;;;;;;4.19;100.00;100479.88;5325708;33;32575;-84
2022/12/06 04:54:55;;;;;;;15.23;7.40;;;;;;;4.19;100.00;100479.03;5324898;33;33938;-84
2022/12/06 04:57:58;;;;;;;14.18;7.05;;;;;;;4.20;100.00;100486.03;5324740;33;34005;-84
2022/12/06 05:01:01;;;;;;;16.55;7.85;;;;;;;4.22;100.00;100478.75;5324606;33;34426;-85
2022/12/06 05:04:04;;;;;;;15.20;7.80;;;;;;;4.26;100.00;100482.81;5324364;33;34723;-85
2022/12/06 05:07:07;;;;;;;14.02;7.78;;;;;;;4.31;100.00;100480.59;5325240;33;33972;-84
2022/12/06 05:10:10;;;;;;;15.27;7.35;;;;;;;4.29;100.00;100477.22;5323351;33;34265;-85
2022/12/06 05:13:14;;;;;;;17.95;7.95;;;;;;;4.26;100.00;100467.69;5334136;33;34448;-84
2022/12/06 05:16:17;;;;;;;16.20;7.18;;;;;;;4.25;100.00;100463.34;5335776;33;34054;-84
2022/12/06 05:19:20;;;;;;;13.38;7.43;;;;;;;4.20;100.00;100462.03;5336011;33;33836;-84
2022/12/06 05:22:25;;;;;;;15.60;7.70;;;;;;;4.19;100.00;100447.88;5337030;33;34497;-84
2022/12/06 05:25:28;;;;;;;14.68;7.75;;;;;;;4.25;100.00;100451.84;5330745;33;34089;-84
2022/12/06 05:28:32;;;;;;;14.20;7.60;;;;;;;4.19;100.00;100466.53;5325530;33;33903;-84
2022/12/06 05:31:35;;;;;;;16.62;7.68;;;;;;;4.27;100.00;100465.84;5325260;33;34049;-84
2022/12/06 05:34:37;;;;;;;14.23;7.15;;;;;;;4.24;100.00;100460.78;5324115;33;34784;-84
2022/12/06 05:37:40;;;;;;;15.35;7.72;;;;;;;4.32;100.00;100467.13;5324336;33;34713;-84
2022/12/06 05:40:43;;;;;;;15.35;7.87;;;;;;;4.29;100.00;100471.91;5335684;33;32360;-84
2022/12/06 05:43:46;;;;;;;12.93;7.70;;;;;;;4.27;100.00;100472.03;5323576;33;34452;-84
2022/12/06 05:46:49;;;;;;;14.70;7.93;;;;;;;4.22;100.00;100481.41;5324148;33;34001;-84
2022/12/06 05:49:52;;;;;;;14.43;7.47;;;;;;;4.19;100.00;100476.38;5323512;33;34163;-84
2022/12/06 05:52:57;;;;;;;16.42;7.72;;;;;;;4.22;100.00;100463.59;5310995;33;33979;-84
2022/12/06 05:56:08;;;;;;;15.30;7.40;;;;;;;4.22;100.00;100460.94;5310201;33;33848;-84
2022/12/06 05:59:11;;;;;;;15.27;8.30;;;;;;;4.23;100.00;100457.28;5327329;33;34493;-84
2022/12/06 06:02:13;;;;;;;17.75;8.60;;;;;;;4.17;100.00;100457.00;5327634;33;33629;-83
2022/12/06 06:05:17;;;;;;;17.92;8.73;;;;;;;4.11;100.00;100455.72;5327963;33;35226;-83
2022/12/06 06:08:19;;;;;;;13.85;7.57;;;;;;;4.12;100.00;100456.53;5326493;33;34375;-84
2022/12/06 06:11:22;;;;;;;18.08;8.98;;;;;;;4.11;100.00;100457.53;5327198;33;34554;-83
2022/12/06 06:14:25;;;;;;;14.95;8.10;;;;;;;4.12;100.00;100453.87;5330794;33;34258;-84
2022/12/06 06:17:27;;;;;;;15.32;8.18;;;;;;;4.06;100.00;100437.44;5327860;33;34375;-84
2022/12/06 06:20:30;;;;;;;14.60;7.85;;;;;;;4.07;100.00;100441.81;5323516;33;33859;-83
2022/12/06 06:23:33;;;;;;;17.58;8.32;;;;;;;4.07;100.00;100439.16;5325947;33;34944;-83
2022/12/06 06:26:36;;;;;;;16.05;8.35;;;;;;;4.10;100.00;100427.37;5326458;33;33963;-83
2022/12/06 06:29:39;;;;;;;13.10;7.65;;;;;;;4.11;100.00;100433.56;5326009;33;34597;-83
2022/12/06 06:32:46;;;;;;;18.20;8.15;;;;;;;4.06;100.00;100432.12;5326075;33;33997;-84
2022/12/06 06:35:49;;;;;;;14.38;7.78;;;;;;;4.05;100.00;100421.59;5310974;33;33610;-83
2022/12/06 06:38:52;;;;;;;14.75;8.05;;;;;;;4.02;100.00;100419.22;5309666;33;33430;-83
2022/12/06 06:41:55;;;;;;;14.00;7.75;;;;;;;4.18;100.00;100422.19;5312088;33;34796;-84
2022/12/06 06:44:57;;;;;;;18.02;7.35;;;;;;;4.18;100.00;100434.69;5315548;33;35465;-85
2022/12/06 06:48:00;;;;;;;16.23;8.27;;;;;;;4.18;100.00;100424.03;5302463;33;33914;-88
2022/12/06 06:51:05;;;;;;;14.38;7.22;;;;;;;4.15;100.00;100418.97;5289120;33;34296;-88
2022/12/06 06:54:07;;;;;;;15.05;8.77;;;;;;;4.15;100.00;100416.31;5290471;33;33743;-88
2022/12/06 06:57:10;;;;;;;15.32;8.05;;;;;;;4.16;100.00;100408.19;5290809;33;33805;-85
2022/12/06 07:00:19;;;;;;;15.63;8.57;;;;;;;4.15;100.00;100425.12;5283749;33;241257;-85
2022/12/06 07:03:22;;;;;;;15.77;7.87;;;;;;;4.14;100.00;100423.47;5293657;33;33658;-84
2022/12/06 07:06:25;;;;;;;12.77;7.50;;;;;;;4.31;100.00;100422.81;5309685;33;34461;-84
2022/12/06 07:09:28;;;;;;;15.77;7.85;;;;;;;4.35;100.00;100414.53;5307483;33;35401;-84
2022/12/06 07:12:32;;;;;;;18.73;8.00;;;;;;;4.39;100.00;100411.47;5321689;33;32348;-84
2022/12/06 07:15:35;;;;;;;15.95;8.43;;;;;;;4.36;100.00;100406.44;5321473;33;33935;-83
2022/12/06 07:18:38;;;;;;;17.00;7.75;;;;;;;4.35;100.00;100411.88;5307333;33;33853;-84
2022/12/06 07:21:40;;;;;;;19.23;8.45;;;;;;;4.34;100.00;100408.38;5309005;33;34043;-82
2022/12/06 07:24:43;;;;;;;16.65;7.87;;;;;;;4.39;100.00;100402.63;5323991;33;33913;-83
2022/12/06 07:27:53;;;;;;;19.10;9.05;;;;;;;4.32;100.00;100408.50;5325305;33;33909;-84
2022/12/06 07:30:56;;;;;;;18.37;9.32;;;;;;;4.29;100.00;100411.44;5318598;33;32778;-84
2022/12/06 07:34:01;;;;;;;16.62;9.02;;;;;;;4.32;100.00;100431.66;5318545;33;35227;-83
2022/12/06 07:37:05;;;;;;;14.60;8.50;;;;;;;4.35;100.00;100434.03;5324764;33;34063;-84
2022/12/06 07:40:08;;;;;;;17.75;9.10;;;;;;;4.32;100.00;100437.81;5315239;33;34755;-84
2022/12/06 07:46:32;;;;;;;17.10;8.35;;;;;;;4.39;100.00;100416.81;5317952;33;32291;-84
2022/12/06 07:49:35;;;;;;;16.17;7.62;;;;;;;4.38;100.00;100411.59;5318456;33;33647;-84
2022/12/06 07:52:38;;;;;;;14.55;8.02;;;;;;;4.41;100.00;100398.00;5326864;33;33852;-84
2022/12/06 07:55:41;;;;;;;20.35;10.88;;;;;;;4.31;100.00;100393.50;5313609;33;34903;-84
2022/12/06 07:58:44;;;;;;;18.85;9.65;;;;;;;4.38;100.00;100408.94;5320107;33;32316;-84
2022/12/06 08:01:46;;;;;;;19.60;10.25;;;;;;;4.49;100.00;100406.16;5329448;33;34701;-84
2022/12/06 08:04:50;;;;;;;16.25;9.45;;;;;;;4.45;100.00;100405.59;5311204;33;34379;-83
2022/12/06 08:07:52;;;;;;;18.85;9.55;;;;;;;4.47;100.00;100410.78;5326249;33;34785;-83
2022/12/06 08:11:04;;;;;;;20.70;9.85;;;;;;;4.57;100.00;100419.66;5317270;33;32726;-83
2022/12/06 08:14:07;;;;;;;15.27;8.82;;;;;;;4.64;100.00;100410.09;5311579;33;32614;-84
2022/12/06 08:17:10;;;;;;;16.90;9.38;;;;;;;4.69;100.00;100423.87;5311346;33;32220;-83
2022/12/06 08:20:12;;;;;;;14.82;7.95;;;;;;;4.76;100.00;100424.16;5305336;33;34856;-83
2022/12/06 08:23:15;;;;;;;13.85;7.75;;;;;;;4.69;100.00;100420.37;5302851;33;34215;-84
2022/12/06 08:26:18;;;;;;;15.77;8.27;;;;;;;4.68;100.00;100434.66;5302339;33;33921;-84
2022/12/06 08:29:21;;;;;;;11.30;6.20;;;;;;;4.67;100.00;100449.81;5302125;33;34207;-84
2022/12/06 08:32:24;;;;;;;11.25;7.00;;;;;;;4.72;100.00;100444.91;5304526;33;34619;-82
2022/12/06 08:35:27;;;;;;;14.18;7.25;;;;;;;4.73;100.00;100443.94;5306594;33;32819;-85
2022/12/06 08:38:30;;;;;;;12.50;6.65;;;;;;;4.76;100.00;100440.16;5305306;33;32632;-83
2022/12/06 08:44:55;;;;;;;11.50;6.70;;;;;;;4.96;100.00;100435.66;5303547;33;32368;-85
2022/12/06 08:47:57;;;;;;;12.00;6.87;;;;;;;5.06;100.00;100447.19;5306316;33;34518;-85
2022/12/06 08:51:03;;;;;;;10.65;7.00;;;;;;;5.28;100.00;100443.38;5306267;33;34904;-82
2022/12/06 08:54:08;;;;;;;11.57;6.60;;;;;;;5.41;100.00;100443.06;5306577;33;32348;-84
2022/12/06 08:57:10;;;;;;;8.10;5.22;;;;;;;5.71;100.00;100446.56;5309471;33;33734;-84
2022/12/06 09:00:14;;;;;;;9.07;5.75;;;;;;;6.03;100.00;100443.53;5297850;33;34587;-84
2022/12/06 09:03:16;;;;;;;6.82;5.20;;;;;;;6.24;100.00;100446.81;5306199;33;34123;-83
2022/12/06 09:06:20;;;;;;;6.28;4.10;;;;;;;6.49;100.00;100453.28;5304828;33;34069;-83
2022/12/06 09:09:23;;;;;;;4.62;2.95;;;;;;;6.65;100.00;100454.47;5305364;33;34904;-83
2022/12/06 09:12:26;;;;;;;5.47;3.33;;;;;;;6.31;100.00;100441.69;5306574;33;34677;-83
2022/12/06 09:15:28;;;;;;;7.00;3.42;;;;;;;5.95;100.00;100436.22;5307159;33;33971;-83
2022/12/06 09:18:32;;;;;;;4.50;3.42;;;;;;;5.87;100.00;100439.59;5309332;33;34531;-82
2022/12/06 09:21:38;;;;;;;5.28;3.72;;;;;;;5.90;100.00;100427.78;5313843;33;32554;-83
2022/12/06 09:24:41;;;;;;;4.97;3.92;;;;;;;6.17;100.00;100437.66;5313860;33;33928;-85
2022/12/06 09:27:43;;;;;;;4.47;3.30;;;;;;;6.45;100.00;100441.19;5311711;33;34355;-82
2022/12/06 09:30:46;;;;;;;5.03;3.70;;;;;;;6.73;100.00;100443.84;5306440;33;33942;-83
2022/12/06 09:33:49;;;;;;;4.60;3.58;;;;;;;6.86;100.00;100438.13;5304330;33;33952;-83
2022/12/06 09:37:04;;;;;;;3.40;3.10;;;;;;;6.92;100.00;100435.66;5310943;33;33944;-83
2022/12/06 09:40:15;;;;;;;4.18;3.40;;;;;;;7.02;100.00;100430.25;5304864;33;33281;-83
2022/12/06 09:43:49;;;;;;;5.62;3.30;;;;;;;6.94;100.00;100427.50;5308946;33;33924;-83
2022/12/06 09:47:17;;;;;;;4.60;3.10;;;;;;;6.91;100.00;100433.16;5312627;33;31468;-83
2022/12/06 09:50:41;;;;;;;4.43;3.25;;;;;;;6.80;100.00;100437.72;5321163;33;33961;-87
2022/12/06 09:53:57;;;;;;;6.43;3.50;;;;;;;6.70;100.00;100444.13;5310089;33;33662;-84
2022/12/06 09:57:04;;;;;;;3.50;3.03;;;;;;;6.74;100.00;100440.19;5321469;33;33028;-83
2022/12/06 10:00:12;;;;;;;3.12;2.80;;;;;;;6.51;100.00;100442.44;5315519;33;32162;-83
2022/12/06 10:03:34;;;;;;;3.05;2.60;;;;;;;6.53;100.00;100443.13;5334602;33;34063;-83
2022/12/06 10:06:46;;;;;;;3.97;2.50;;;;;;;6.49;100.00;100431.91;5313428;33;34342;-83
2022/12/06 10:10:26;;;;;;;4.10;2.70;;;;;;;6.45;100.00;100433.16;5317561;33;34135;-84
2022/12/06 10:14:01;;;;;;;3.53;2.37;;;;;;;6.50;100.00;100435.41;5321010;33;33632;-83
2022/12/06 10:17:29;;;;;;;3.28;3.08;;;;;;;6.54;100.00;100421.56;5305831;33;33759;-83
2022/12/06 10:20:52;;;;;;;3.10;2.80;;;;;;;6.77;100.00;100416.63;5306026;33;35442;-84
2022/12/06 10:24:15;;;;;;;4.70;2.45;;;;;;;6.97;100.00;100406.63;5304416;33;32521;-83
2022/12/06 10:27:43;;;;;;;2.58;2.33;;;;;;;6.71;100.00;100406.53;5309982;33;34861;-83
2022/12/06 10:30:51;;;;;;;3.15;2.50;;;;;;;6.86;100.00;100396.13;5315956;33;34186;-83
2022/12/06 10:34:02;;;;;;;2.83;2.60;;;;;;;6.68;100.00;100389.94;5318420;33;34843;-83
2022/12/06 10:37:31;;;;;;;2.95;2.65;;;;;;;6.56;100.00;100384.81;5306736;33;33992;-83
2022/12/06 10:41:02;;;;;;;5.57;2.67;;;;;;;6.59;100.00;100381.84;5305744;33;33977;-83
2022/12/06 10:44:24;;;;;;;2.28;2.08;;;;;;;6.39;100.00;100374.94;5299193;33;34421;-87
2022/12/06 10:47:41;;;;;;;3.70;2.60;;;;;;;6.31;100.00;100364.16;5308427;33;33891;-83
2022/12/06 10:50:49;;;;;;;2.62;2.37;;;;;;;6.43;100.00;100354.91;5309790;33;32512;-83
2022/12/06 10:53:58;;;;;;;2.92;2.42;;;;;;;6.56;100.00;100362.59;5314262;33;34003;-83
2022/12/06 10:57:06;;;;;;;3.75;2.60;;;;;;;6.51;100.00;100364.88;5323253;33;33891;-83
2022/12/06 11:00:19;;;;;;;3.08;2.47;;;;;;;6.55;100.00;100369.78;5316574;33;33886;-83
2022/12/06 11:03:26;;;;;;;2.90;2.50;;;;;;;6.60;100.00;100361.28;5318770;33;34007;-83
2022/12/06 11:06:37;;;;;;;2.72;2.20;;;;;;;6.83;100.00;100369.69;5325223;33;33926;-83
2022/12/06 11:09:44;;;;;;;2.67;2.30;;;;;;;6.86;100.00;100360.50;5308414;33;34493;-83
2022/12/06 11:12:52;;;;;;;2.47;2.28;;;;;;;6.96;100.00;100358.56;5323285;33;33110;-83
2022/12/06 11:16:02;;;;;;;2.53;2.30;;;;;;;6.97;100.00;100353.09;5320127;33;33563;-83
2022/12/06 11:19:20;;;;;;;2.55;2.35;;;;;;;6.87;100.00;100349.63;5320924;33;35429;-83
2022/12/06 11:22:43;;;;;;;3.17;2.37;;;;;;;6.77;100.00;100340.88;5318685;33;33990;-83
2022/12/06 11:26:04;;;;;;;3.03;2.60;;;;;;;6.60;100.00;100339.88;5319166;33;33731;-83
2022/12/06 11:29:13;;;;;;;3.67;2.65;;;;;;;6.69;100.00;100346.16;5295628;33;33977;-83
2022/12/06 11:32:17;;;;;;;2.83;2.53;;;;;;;6.75;100.00;100348.19;5311216;33;33928;-83
2022/12/06 11:35:27;;;;;;;4.97;2.83;;;;;;;6.84;100.00;100338.41;5304835;33;34074;-84
2022/12/06 11:38:32;;;;;;;3.62;2.90;;;;;;;7.26;99.83;100338.56;5318608;33;34162;-84
2022/12/06 11:41:37;;;;;;;4.62;2.72;;;;;;;7.80;95.75;100336.50;5315079;33;34003;-83
2022/12/06 11:44:47;;;;;;;2.80;2.60;;;;;;;7.89;93.52;100342.75;5312108;33;34033;-83
2022/12/06 11:47:54;;;;;;;3.22;2.70;;;;;;;7.91;92.84;100344.28;5320902;33;33352;-83
2022/12/06 11:50:57;;;;;;;2.83;2.40;;;;;;;7.61;92.52;100347.50;5329694;33;33244;-83
2022/12/06 11:54:25;;;;;;;3.25;2.10;;;;;;;6.99;94.99;100348.44;5330554;33;33789;-83
2022/12/06 11:57:41;;;;;;;2.53;2.33;;;;;;;6.74;96.75;100343.84;5317778;33;33998;-81
2022/12/06 12:01:13;;;;;;;2.97;2.40;;;;;;;6.70;97.11;100350.50;5311908;33;34916;-83
2022/12/06 12:04:38;;;;;;;3.25;2.58;;;;;;;6.72;96.64;100351.19;5298174;33;33159;-83
2022/12/06 12:07:44;;;;;;;2.33;2.08;;;;;;;6.52;96.83;100346.00;5310842;33;34717;-83
2022/12/06 12:10:58;;;;;;;2.22;2.03;;;;;;;6.48;96.69;100347.28;5326791;33;34186;-88
2022/12/06 12:14:06;;;;;;;3.22;2.20;;;;;;;6.47;96.17;100344.78;5288156;33;33137;-84
2022/12/06 12:17:19;;;;;;;5.47;2.30;;;;;;;6.41;97.36;100346.22;5297243;33;33950;-84
2022/12/06 12:20:29;;;;;;;2.90;2.03;;;;;;;6.34;97.20;100347.81;5321532;33;34809;-84
2022/12/06 12:23:35;;;;;;;2.05;1.90;;;;;;;6.31;100.00;100348.94;5307952;33;33634;-84
2022/12/06 12:26:40;;;;;;;4.28;2.30;;;;;;;6.27;98.92;100354.75;5321133;33;33899;-84
2022/12/06 12:29:43;;;;;;;2.28;2.05;;;;;;;6.20;98.98;100346.50;5324766;33;33903;-84
2022/12/06 12:32:47;;;;;;;2.28;2.08;;;;;;;6.26;99.92;100348.59;5324381;33;34201;-84
2022/12/06 12:35:52;;;;;;;3.40;2.25;;;;;;;6.31;98.84;100348.94;5326067;33;34023;-83
2022/12/06 12:38:59;;;;;;;2.15;1.85;;;;;;;6.19;96.96;100355.50;5322977;33;32203;-83
2022/12/06 12:42:03;;;;;;;2.37;1.92;;;;;;;6.14;100.00;100355.09;5318685;33;33974;-83
2022/12/06 12:45:18;;;;;;;2.62;2.03;;;;;;;6.18;98.22;100350.31;5305197;33;33950;-83
2022/12/06 12:48:25;;;;;;;2.28;2.08;;;;;;;6.28;98.81;100351.94;5305357;33;34249;-83
2022/12/06 12:51:31;;;;;;;3.75;2.33;;;;;;;6.32;97.85;100355.16;5307398;33;32495;-83
2022/12/06 12:54:36;;;;;;;2.35;2.10;;;;;;;6.21;100.00;100350.84;5305196;33;32317;-83
2022/12/06 12:57:40;;;;;;;3.35;2.12;;;;;;;6.26;99.44;100358.41;5307560;33;34146;-83
2022/12/06 13:00:47;;;;;;;2.75;2.10;;;;;;;6.28;99.69;100359.94;5315067;33;34478;-83
2022/12/06 13:04:30;;;;;;;2.40;2.20;;;;;;;6.88;98.74;100342.47;5311908;33;33973;-83
2022/12/06 13:07:35;;;;;;;5.10;2.03;;;;;;;7.21;94.55;100340.88;5310406;33;34698;-84
2022/12/06 13:10:42;;;;;;;2.50;2.30;;;;;;;6.89;95.93;100341.47;5309256;33;33839;-88
2022/12/06 13:13:49;;;;;;;2.87;2.20;;;;;;;6.57;98.38;100349.03;5309085;33;33602;-88
2022/12/06 13:16:55;;;;;;;3.40;2.33;;;;;;;6.41;98.66;100350.75;5306085;33;34471;-84
2022/12/06 13:19:59;;;;;;;2.50;2.30;;;;;;;6.51;99.02;100352.34;5306900;33;34458;-84
2022/12/06 13:23:15;;;;;;;2.30;2.10;;;;;;;6.49;99.84;100343.66;5306843;33;34279;-84
2022/12/06 13:26:37;;;;;;;2.70;2.10;;;;;;;6.67;96.86;100343.62;5306202;33;34313;-84
2022/12/06 13:29:52;;;;;;;2.28;2.08;;;;;;;6.68;96.12;100347.16;5305570;33;35063;-83
2022/12/06 13:33:17;;;;;;;7.57;2.28;;;;;;;6.62;96.46;100351.28;5307499;33;34653;-83
2022/12/06 13:36:24;;;;;;;3.62;2.40;;;;;;;6.53;97.89;100350.34;5307104;33;34508;-84
2022/12/06 13:39:30;;;;;;;1.90;1.80;;;;;;;6.37;100.00;100353.69;5307834;33;34078;-84
2022/12/06 13:42:35;;;;;;;2.00;1.80;;;;;;;6.26;98.15;100351.25;5311664;33;33987;-84
2022/12/06 13:45:45;;;;;;;2.95;2.17;;;;;;;6.30;96.81;100357.12;5307889;33;33474;-83
2022/12/06 13:48:55;;;;;;;2.20;2.00;;;;;;;6.23;96.43;100354.22;5312020;33;34749;-84
2022/12/06 13:51:58;;;;;;;2.15;2.03;;;;;;;6.15;96.66;100362.16;5311217;33;35522;-84
2022/12/06 13:55:24;;;;;;;3.17;1.65;;;;;;;6.13;98.77;100364.97;5312745;33;34917;-84
2022/12/06 13:58:26;;;;;;;2.65;1.80;;;;;;;6.11;97.09;100366.97;5312557;33;34841;-88
2022/12/06 14:01:35;;;;;;;1.58;1.48;;;;;;;6.13;96.12;100356.94;5308581;33;34049;-88
2022/12/06 14:04:42;;;;;;;2.62;1.50;;;;;;;6.04;97.75;100351.66;5307121;33;33800;-84
2022/12/06 14:07:44;;;;;;;1.98;1.87;;;;;;;5.82;99.86;100350.19;5294614;33;32392;-84
2022/12/06 14:10:47;;;;;;;1.90;1.80;;;;;;;5.73;100.00;100359.09;5310045;33;34144;-84
2022/12/06 14:13:54;;;;;;;3.78;2.10;;;;;;;5.62;100.00;100358.28;5304541;33;32254;-84
2022/12/06 14:17:01;;;;;;;6.97;2.08;;;;;;;5.53;100.00;100356.50;5308027;33;36026;-84
2022/12/06 14:20:19;;;;;;;3.20;2.00;;;;;;;5.45;100.00;100365.22;5307577;33;33838;-84
2022/12/06 14:23:43;;;;;;;2.70;2.05;;;;;;;5.35;100.00;100347.53;5307370;33;34512;-84
2022/12/06 14:26:46;;;;;;;4.87;2.12;;;;;;;5.26;100.00;100349.25;5306598;33;34497;-84
2022/12/06 14:30:17;;;;;;;2.58;2.37;;;;;;;5.29;100.00;100353.47;5294792;33;32294;-83
2022/12/06 14:33:27;;;;;;;2.22;2.03;;;;;;;5.26;100.00;100351.09;5310135;33;34255;-84
2022/12/06 14:36:38;;;;;;;1.98;1.87;;;;;;;5.35;100.00;100361.75;5294577;33;32864;-84
2022/12/06 14:39:52;;;;;;;2.40;1.95;;;;;;;5.35;99.87;100358.22;5293424;33;33901;-84
2022/12/06 14:43:02;;;;;;;2.10;1.90;;;;;;;5.30;99.20;100358.69;5307088;33;34786;-84
2022/12/06 14:46:10;;;;;;;3.62;2.50;;;;;;;5.28;100.00;100349.13;5294053;33;32124;-84
2022/12/06 14:52:59;;;;;;;2.58;2.00;;;;;;;5.11;100.00;100356.03;5306826;33;33630;-84
2022/12/06 14:56:05;;;;;;;4.35;2.45;;;;;;;4.99;100.00;100355.34;5294273;33;32374;-83
2022/12/06 14:59:11;;;;;;;3.60;2.58;;;;;;;4.92;100.00;100359.59;5294166;33;32364;-83
2022/12/06 15:02:30;;;;;;;2.55;2.30;;;;;;;4.84;100.00;100365.63;5307303;33;35347;-83
2022/12/06 15:05:44;;;;;;;4.55;2.17;;;;;;;4.76;100.00;100355.63;5293742;33;34153;-84
2022/12/06 15:09:10;;;;;;;3.92;2.47;;;;;;;4.59;100.00;100361.66;5306914;33;34371;-84
2022/12/06 15:15:46;;;;;;;3.10;2.40;;;;;;;4.70;100.00;100360.69;5306304;33;34951;-83
2022/12/06 15:18:58;;;;;;;2.97;2.45;;;;;;;4.62;100.00;100358.75;5307523;33;33169;-83
2022/12/06 15:22:02;;;;;;;4.95;2.85;;;;;;;4.57;100.00;100357.50;5297049;33;34059;-84
2022/12/06 15:25:05;;;;;;;3.12;2.75;;;;;;;4.52;100.00;100353.41;5307339;33;34402;-86
2022/12/06 15:28:07;;;;;;;3.67;2.90;;;;;;;4.61;100.00;100364.22;5307412;33;35120;-86
2022/12/06 15:31:17;;;;;;;3.45;2.72;;;;;;;4.51;100.00;100367.72;5307176;33;34206;-87
2022/12/06 15:34:34;;;;;;;3.47;3.17;;;;;;;4.34;100.00;100365.72;5307498;33;35263;-83
2022/12/06 15:37:36;;;;;;;3.92;2.70;;;;;;;4.23;100.00;100366.69;5293986;33;32670;-83
2022/12/06 15:40:45;;;;;;;5.37;2.60;;;;;;;4.05;100.00;100374.50;5311199;33;35369;-83
2022/12/06 15:43:49;;;;;;;3.78;3.00;;;;;;;3.99;100.00;100375.03;5310200;33;34086;-83
2022/12/06 15:46:53;;;;;;;3.20;2.90;;;;;;;3.98;100.00;100370.69;5311599;33;33614;-83
2022/12/06 15:49:57;;;;;;;4.68;3.17;;;;;;;4.09;100.00;100377.72;5311014;33;34491;-83
2022/12/06 15:53:00;;;;;;;4.50;3.00;;;;;;;4.11;100.00;100383.78;5294619;33;32387;-83
2022/12/06 15:56:03;;;;;;;3.40;2.67;;;;;;;4.00;100.00;100386.53;5294793;33;32771;-83
2022/12/06 15:59:06;;;;;;;3.70;2.58;;;;;;;4.19;100.00;100396.44;5294265;33;34185;-84
2022/12/06 16:02:17;;;;;;;3.33;3.03;;;;;;;4.31;100.00;100385.50;5311249;33;34444;-83
2022/12/06 16:05:20;;;;;;;5.85;3.20;;;;;;;4.25;100.00;100390.53;5311448;33;33679;-83
2022/12/06 16:08:22;;;;;;;4.80;3.05;;;;;;;4.21;100.00;100389.13;5308969;33;34571;-83
2022/12/06 16:11:26;;;;;;;3.42;2.90;;;;;;;4.19;100.00;100383.94;5306825;33;35178;-83
2022/12/06 16:14:28;;;;;;;4.30;2.90;;;;;;;4.15;100.00;100395.00;5293240;33;32539;-83
2022/12/06 16:17:31;;;;;;;4.57;3.10;;;;;;;4.24;100.00;100388.84;5293515;33;33326;-83
2022/12/06 16:20:34;;;;;;;3.37;2.80;;;;;;;4.16;100.00;100389.53;5306835;33;33928;-84
2022/12/06 16:27:15;;;;;;;3.28;2.87;;;;;;;3.98;100.00;100391.16;5307029;33;34604;-84
2022/12/06 16:30:30;;;;;;;4.40;3.30;;;;;;;3.91;100.00;100392.69;5307238;33;35409;-83
2022/12/06 16:33:32;;;;;;;3.92;3.00;;;;;;;3.87;100.00;100387.62;5306499;33;34062;-84
2022/12/06 16:36:54;;;;;;;4.25;2.90;;;;;;;3.93;100.00;100393.41;5306751;33;33570;-83
2022/12/06 16:39:57;;;;;;;3.62;2.95;;;;;;;3.87;100.00;100395.59;5306250;33;34215;-87
2022/12/06 16:42:59;;;;;;;3.17;2.87;;;;;;;3.82;100.00;100395.16;5293117;33;33751;-86
2022/12/06 16:46:32;;;;;;;5.32;2.97;;;;;;;3.77;100.00;100380.56;5293496;33;33170;-84
2022/12/06 16:49:38;;;;;;;3.42;2.90;;;;;;;3.83;100.00;100399.53;5293396;33;33592;-85
2022/12/06 16:52:51;;;;;;;3.95;3.03;;;;;;;3.83;100.00;100394.19;5296353;33;32515;-83
2022/12/06 16:55:56;;;;;;;3.67;2.87;;;;;;;3.71;100.00;100399.72;5308090;33;34243;-83
2022/12/06 16:58:58;;;;;;;3.12;2.85;;;;;;;3.64;100.00;100399.44;5307405;33;35529;-83
2022/12/06 17:02:02;;;;;;;4.78;2.92;;;;;;;3.62;100.00;100401.38;5306345;33;34260;-83
